Time;durP1;ratioP1;P1;durP2;ratioP2;P2;SDS_P1;SDS_P2;PMS_P1;PMS_P2;Temp;Humidity;BMP_temperature;BMP_pressure;BME280_temperature;BME280_humidity;BME280_pressure;Samples;Min_cycle;Max_cycle;Signal;HPM_P1;HPM_P2
2024/04/14 00:00:48;;;;;;;;;;;13.70;1.00;;;;;;5434524;26;19929;-76
2024/04/14 00:03:13;;;;;;;;;;;13.70;1.00;;;;;;5428641;26;19929;-76
2024/04/14 00:05:39;;;;;;;;;;;13.70;1.00;;;;;;5420103;26;19937;-76
2024/04/14 00:08:05;;;;;;;;;;;13.70;1.00;;;;;;5433103;26;19929;-76
2024/04/14 00:10:31;;;;;;;;;;;13.60;1.00;;;;;;5419917;26;20253;-76
2024/04/14 00:12:57;;;;;;;;;;;13.60;1.00;;;;;;5420003;26;19997;-76
2024/04/14 00:15:24;;;;;;;;;;;13.60;1.00;;;;;;5419583;26;19998;-76
2024/04/14 00:17:50;;;;;;;;;;;13.60;1.00;;;;;;5419940;26;20321;-76
2024/04/14 00:20:16;;;;;;;;;;;13.60;1.00;;;;;;5419432;26;19929;-76
2024/04/14 00:22:43;;;;;;;;;;;13.60;1.00;;;;;;5419482;26;19933;-76
2024/04/14 00:25:09;;;;;;;;;;;13.50;1.00;;;;;;5419472;26;19960;-76
2024/04/14 00:27:34;;;;;;;;;;;13.60;1.00;;;;;;5429755;26;19936;-76
2024/04/14 00:30:00;;;;;;;;;;;13.50;1.00;;;;;;5419531;26;19940;-76
2024/04/14 00:32:30;;;;;;;;;;;13.50;1.00;;;;;;5419934;26;19929;-76
2024/04/14 00:34:56;;;;;;;;;;;13.50;1.00;;;;;;5419084;26;19933;-76
2024/04/14 00:37:21;;;;;;;;;;;13.50;1.00;;;;;;5419175;26;19935;-76
2024/04/14 00:39:47;;;;;;;;;;;13.50;1.00;;;;;;5419112;26;19936;-76
2024/04/14 00:42:13;;;;;;;;;;;13.40;1.00;;;;;;5424467;26;19936;-76
2024/04/14 00:44:38;;;;;;;;;;;13.40;1.00;;;;;;5418953;26;19997;-76
2024/04/14 00:47:05;;;;;;;;;;;13.40;1.00;;;;;;5418967;26;19937;-76
2024/04/14 00:49:31;;;;;;;;;;;13.40;1.00;;;;;;5419324;26;19929;-76
2024/04/14 00:51:59;;;;;;;;;;;13.40;1.00;;;;;;5418665;26;20301;-76
2024/04/14 00:54:31;;;;;;;;;;;13.40;1.00;;;;;;5418136;26;19929;-76
2024/04/14 00:57:18;;;;;;;;;;;13.30;1.00;;;;;;5395163;26;19929;-76
2024/04/14 00:59:43;;;;;;;;;;;13.40;1.00;;;;;;5418668;26;19929;-76
2024/04/14 01:02:09;;;;;;;;;;;13.30;1.00;;;;;;5418336;26;19936;-76
2024/04/14 01:04:34;;;;;;;;;;;13.30;1.00;;;;;;5418684;26;20373;-76
2024/04/14 01:07:00;;;;;;;;;;;13.30;1.00;;;;;;5429759;26;19939;-76
2024/04/14 01:09:26;;;;;;;;;;;13.30;1.00;;;;;;5431275;26;19929;-76
2024/04/14 01:11:52;;;;;;;;;;;13.30;1.00;;;;;;5418925;26;19936;-76
2024/04/14 01:14:18;;;;;;;;;;;13.30;1.00;;;;;;5418715;26;19937;-76
2024/04/14 01:16:43;;;;;;;;;;;13.30;1.00;;;;;;5435464;26;19959;-76
2024/04/14 01:19:09;;;;;;;;;;;13.20;1.00;;;;;;5419242;26;19936;-76
2024/04/14 01:21:35;;;;;;;;;;;13.20;1.00;;;;;;5418525;26;19936;-76
2024/04/14 01:24:06;;;;;;;;;;;13.20;1.00;;;;;;5418916;26;19935;-76
2024/04/14 01:26:31;;;;;;;;;;;13.20;1.00;;;;;;5418450;26;19929;-76
2024/04/14 01:28:57;;;;;;;;;;;13.10;1.00;;;;;;5418501;26;19935;-77
2024/04/14 01:31:23;;;;;;;;;;;13.10;1.00;;;;;;5418651;26;19928;-76
2024/04/14 01:33:54;;;;;;;;;;;13.10;1.00;;;;;;5418954;26;19935;-76
2024/04/14 01:36:30;;;;;;;;;;;13.10;1.00;;;;;;5418081;26;19937;-76
2024/04/14 01:38:56;;;;;;;;;;;13.00;1.00;;;;;;5434055;26;19940;-76
2024/04/14 01:41:30;;;;;;;;;;;13.00;1.00;;;;;;5417427;26;20166;-76
2024/04/14 01:44:00;;;;;;;;;;;13.00;1.00;;;;;;5411943;26;19936;-76
2024/04/14 01:46:26;;;;;;;;;;;13.00;1.00;;;;;;5401916;26;19998;-76
2024/04/14 01:49:00;;;;;;;;;;;13.00;1.00;;;;;;5418725;26;19929;-76
2024/04/14 01:51:25;;;;;;;;;;;12.90;1.00;;;;;;5418297;26;19929;-76
2024/04/14 01:53:51;;;;;;;;;;;12.90;1.00;;;;;;5418124;26;19936;-76
2024/04/14 01:56:17;;;;;;;;;;;12.90;1.00;;;;;;5422662;26;19939;-76
2024/04/14 01:58:48;;;;;;;;;;;12.90;1.00;;;;;;5418003;26;19940;-76
2024/04/14 02:01:18;;;;;;;;;;;12.90;1.00;;;;;;5417805;26;19929;-76
2024/04/14 02:03:44;;;;;;;;;;;12.70;1.00;;;;;;5418850;26;19941;-76
2024/04/14 02:06:09;;;;;;;;;;;12.70;1.00;;;;;;5417955;26;19929;-76
2024/04/14 02:08:35;;;;;;;;;;;12.70;1.00;;;;;;5417801;26;19929;-76
2024/04/14 02:11:00;;;;;;;;;;;12.70;1.00;;;;;;5418125;26;19961;-76
2024/04/14 02:13:27;;;;;;;;;;;12.70;1.00;;;;;;5417904;26;19937;-76
2024/04/14 02:15:54;;;;;;;;;;;12.70;1.00;;;;;;5415829;26;19935;-76
2024/04/14 02:18:24;;;;;;;;;;;12.70;1.00;;;;;;5417990;26;19929;-76
2024/04/14 02:20:50;;;;;;;;;;;12.70;1.00;;;;;;5417598;26;19936;-76
2024/04/14 02:23:19;;;;;;;;;;;12.60;1.00;;;;;;5393795;26;19929;-76
2024/04/14 02:25:53;;;;;;;;;;;12.60;1.00;;;;;;5417615;26;19929;-76
2024/04/14 02:28:18;;;;;;;;;;;12.60;1.00;;;;;;5417776;26;19965;-76
2024/04/14 02:30:44;;;;;;;;;;;12.50;1.00;;;;;;5417225;26;20005;-77
2024/04/14 02:33:12;;;;;;;;;;;12.50;1.00;;;;;;5417799;26;19979;-76
2024/04/14 02:35:40;;;;;;;;;;;12.50;1.00;;;;;;5417229;26;19929;-76
2024/04/14 02:38:05;;;;;;;;;;;12.50;1.00;;;;;;5417683;26;19937;-76
2024/04/14 02:40:36;;;;;;;;;;;12.50;1.00;;;;;;5417500;26;19936;-76
2024/04/14 02:43:01;;;;;;;;;;;12.50;1.00;;;;;;5417505;26;20016;-76
2024/04/14 02:45:29;;;;;;;;;;;12.50;1.00;;;;;;5417080;26;19929;-77
2024/04/14 02:47:54;;;;;;;;;;;12.40;1.00;;;;;;5417405;26;19936;-76
2024/04/14 02:50:24;;;;;;;;;;;12.40;1.00;;;;;;5410434;26;19932;-75
2024/04/14 02:52:50;;;;;;;;;;;12.40;1.00;;;;;;5400016;26;19937;-76
2024/04/14 02:55:15;;;;;;;;;;;12.40;1.00;;;;;;5410694;26;19929;-76
2024/04/14 02:57:41;;;;;;;;;;;12.40;1.00;;;;;;5416975;26;19929;-76
2024/04/14 03:00:13;;;;;;;;;;;12.40;1.00;;;;;;5384925;26;19929;-75
2024/04/14 03:02:39;;;;;;;;;;;12.30;1.00;;;;;;5399924;26;19929;-76
2024/04/14 03:05:05;;;;;;;;;;;12.30;1.00;;;;;;5415476;26;19961;-76
2024/04/14 03:07:31;;;;;;;;;;;12.30;1.00;;;;;;5399812;26;20417;-76
2024/04/14 03:10:06;;;;;;;;;;;12.20;1.00;;;;;;5416914;26;19929;-76
2024/04/14 03:12:32;;;;;;;;;;;12.30;1.00;;;;;;5416866;26;19963;-75
2024/04/14 03:14:57;;;;;;;;;;;12.20;1.00;;;;;;5417824;26;19929;-76
2024/04/14 03:17:25;;;;;;;;;;;12.20;1.00;;;;;;5416503;26;19929;-76
2024/04/14 03:19:54;;;;;;;;;;;12.20;1.00;;;;;;5417051;26;19929;-76
2024/04/14 03:22:20;;;;;;;;;;;12.20;1.00;;;;;;5416330;26;19953;-76
2024/04/14 03:24:48;;;;;;;;;;;12.20;1.00;;;;;;5416566;26;19929;-76
2024/04/14 03:27:14;;;;;;;;;;;12.20;1.00;;;;;;5419723;26;19955;-76
2024/04/14 03:29:40;;;;;;;;;;;12.20;1.00;;;;;;5420519;26;19929;-76
2024/04/14 03:32:06;;;;;;;;;;;12.10;1.00;;;;;;5420263;26;19940;-76
2024/04/14 03:34:32;;;;;;;;;;;12.10;1.00;;;;;;5420628;26;19956;-76
2024/04/14 03:36:57;;;;;;;;;;;12.10;1.00;;;;;;5420069;26;19936;-76
2024/04/14 03:39:23;;;;;;;;;;;12.10;1.00;;;;;;5419804;26;19936;-76
2024/04/14 03:41:49;;;;;;;;;;;12.10;1.00;;;;;;5432967;26;19960;-76
2024/04/14 03:44:14;;;;;;;;;;;12.10;1.00;;;;;;5423469;26;19929;-76
2024/04/14 03:46:40;;;;;;;;;;;12.00;1.00;;;;;;5419938;26;19929;-76
2024/04/14 03:49:05;;;;;;;;;;;12.00;1.00;;;;;;5420479;26;19940;-76
2024/04/14 03:51:42;;;;;;;;;;;12.00;1.00;;;;;;5419904;26;19993;-76
2024/04/14 03:54:12;;;;;;;;;;;12.00;1.00;;;;;;5397045;26;19932;-77
2024/04/14 03:56:38;;;;;;;;;;;12.00;1.00;;;;;;5419766;26;20076;-77
2024/04/14 03:59:03;;;;;;;;;;;12.00;1.00;;;;;;5419674;26;19955;-77
2024/04/14 04:01:29;;;;;;;;;;;12.00;1.00;;;;;;5425800;26;19936;-76
2024/04/14 04:04:00;;;;;;;;;;;12.00;1.50;;;;;;5420098;26;19940;-76
2024/04/14 04:06:25;;;;;;;;;;;12.00;1.80;;;;;;5419633;26;19936;-76
2024/04/14 04:08:51;;;;;;;;;;;12.00;1.90;;;;;;5419483;26;19929;-76
2024/04/14 04:11:17;;;;;;;;;;;11.90;1.00;;;;;;5419408;26;19935;-76
2024/04/14 04:13:42;;;;;;;;;;;11.90;3.10;;;;;;5419524;26;19929;-76
2024/04/14 04:16:08;;;;;;;;;;;11.90;1.00;;;;;;5419412;26;19941;-76
2024/04/14 04:18:34;;;;;;;;;;;11.80;1.20;;;;;;5419480;26;19930;-76
2024/04/14 04:21:01;;;;;;;;;;;11.80;1.00;;;;;;5420074;26;19936;-76
2024/04/14 04:23:27;;;;;;;;;;;11.70;1.00;;;;;;5427967;26;20381;-77
2024/04/14 04:26:00;;;;;;;;;;;11.70;1.00;;;;;;5428607;26;19936;-77
2024/04/14 04:28:30;;;;;;;;;;;11.60;1.20;;;;;;5419396;26;19939;-76
2024/04/14 04:30:56;;;;;;;;;;;11.60;3.80;;;;;;5419403;26;19929;-76
2024/04/14 04:33:25;;;;;;;;;;;11.60;3.70;;;;;;5419567;26;20262;-76
2024/04/14 04:35:54;;;;;;;;;;;11.60;4.70;;;;;;5405066;26;19936;-76
2024/04/14 04:38:24;;;;;;;;;;;11.50;5.50;;;;;;5416722;26;19929;-76
2024/04/14 04:40:54;;;;;;;;;;;11.50;2.60;;;;;;5419282;26;19929;-75
2024/04/14 04:43:23;;;;;;;;;;;11.50;4.50;;;;;;5419300;26;19960;-76
2024/04/14 04:45:54;;;;;;;;;;;11.50;4.10;;;;;;5428105;26;19928;-77
2024/04/14 04:48:20;;;;;;;;;;;11.50;4.60;;;;;;5431452;26;19963;-76
2024/04/14 04:50:46;;;;;;;;;;;11.50;4.10;;;;;;5427877;26;19936;-75
2024/04/14 04:53:15;;;;;;;;;;;11.50;2.10;;;;;;5419119;26;19929;-76
2024/04/14 04:55:41;;;;;;;;;;;11.60;5.50;;;;;;5419171;26;19936;-75
2024/04/14 04:58:13;;;;;;;;;;;11.60;2.30;;;;;;5418792;26;19936;-75
2024/04/14 05:00:50;;;;;;;;;;;11.70;4.90;;;;;;5405524;26;19992;-76
2024/04/14 05:03:16;;;;;;;;;;;11.80;4.00;;;;;;5411863;26;20268;-76
2024/04/14 05:05:58;;;;;;;;;;;11.80;6.50;;;;;;5419323;26;19937;-76
2024/04/14 05:08:24;;;;;;;;;;;11.90;6.00;;;;;;5418816;26;20381;-76
2024/04/14 05:10:54;;;;;;;;;;;11.90;4.30;;;;;;5418800;26;19929;-76
2024/04/14 05:13:20;;;;;;;;;;;11.90;6.90;;;;;;5418668;26;19929;-76
2024/04/14 05:15:46;;;;;;;;;;;12.00;3.60;;;;;;5428041;26;19935;-76
2024/04/14 05:18:12;;;;;;;;;;;12.00;6.30;;;;;;5418597;26;19974;-75
2024/04/14 05:20:38;;;;;;;;;;;12.20;2.20;;;;;;5417573;26;19928;-76
2024/04/14 05:23:12;;;;;;;;;;;12.20;4.80;;;;;;5418512;26;19929;-76
2024/04/14 05:25:41;;;;;;;;;;;12.30;8.30;;;;;;5416587;26;20359;-76
2024/04/14 05:28:12;;;;;;;;;;;12.30;4.90;;;;;;5418549;26;19940;-76
2024/04/14 05:30:48;;;;;;;;;;;12.50;1.00;;;;;;5418707;26;19929;-76
2024/04/14 05:33:14;;;;;;;;;;;12.50;2.70;;;;;;5382950;26;19937;-76
2024/04/14 05:35:51;;;;;;;;;;;12.60;2.00;;;;;;5407127;26;19929;-77
2024/04/14 05:38:18;;;;;;;;;;;12.60;1.80;;;;;;5418303;26;19998;-77
2024/04/14 05:40:44;;;;;;;;;;;12.60;1.00;;;;;;5424983;26;19935;-77
2024/04/14 05:43:12;;;;;;;;;;;12.70;1.60;;;;;;5418378;26;19929;-77
2024/04/14 05:45:38;;;;;;;;;;;12.80;1.00;;;;;;5418400;26;19929;-77
2024/04/14 05:48:04;;;;;;;;;;;12.90;1.00;;;;;;5418174;26;19935;-77
2024/04/14 05:50:30;;;;;;;;;;;13.10;1.00;;;;;;5433362;26;19971;-76
2024/04/14 05:52:56;;;;;;;;;;;12.90;1.00;;;;;;5421635;26;20055;-76
2024/04/14 05:55:24;;;;;;;;;;;13.10;1.00;;;;;;5418347;26;19987;-76
2024/04/14 05:57:50;;;;;;;;;;;13.30;1.00;;;;;;5418042;26;19936;-76
2024/04/14 06:00:16;;;;;;;;;;;13.50;1.00;;;;;;5417643;26;19941;-82
2024/04/14 06:02:42;;;;;;;;;;;13.70;1.00;;;;;;5409007;26;19928;-76
2024/04/14 06:05:12;;;;;;;;;;;13.70;1.00;;;;;;5407338;26;19936;-76
2024/04/14 06:07:38;;;;;;;;;;;13.80;1.00;;;;;;5417304;26;19928;-76
2024/04/14 06:10:04;;;;;;;;;;;13.90;1.00;;;;;;5417020;26;20353;-77
2024/04/14 06:12:29;;;;;;;;;;;14.00;1.00;;;;;;5412566;26;19998;-76
2024/04/14 06:14:55;;;;;;;;;;;14.10;1.00;;;;;;5417556;26;20331;-77
2024/04/14 06:17:21;;;;;;;;;;;14.20;1.00;;;;;;5415894;26;19929;-76
2024/04/14 06:19:46;;;;;;;;;;;14.40;1.00;;;;;;5417453;26;19935;-77
2024/04/14 06:22:12;;;;;;;;;;;14.60;1.00;;;;;;5417836;26;19940;-77
2024/04/14 06:24:38;;;;;;;;;;;14.70;1.00;;;;;;5423971;26;19953;-77
2024/04/14 06:27:18;;;;;;;;;;;14.90;1.00;;;;;;5453739;26;19928;-77
2024/04/14 06:29:44;;;;;;;;;;;15.00;1.00;;;;;;5418169;26;19936;-77
2024/04/14 06:32:10;;;;;;;;;;;15.10;1.00;;;;;;5417694;26;19929;-77
2024/04/14 06:34:35;;;;;;;;;;;15.30;1.00;;;;;;5417660;26;19941;-77
2024/04/14 06:37:01;;;;;;;;;;;15.40;1.00;;;;;;5417734;26;19929;-77
2024/04/14 06:39:26;;;;;;;;;;;15.50;1.00;;;;;;5417256;26;19955;-77
2024/04/14 06:41:52;;;;;;;;;;;15.70;1.00;;;;;;5417052;26;19937;-77
2024/04/14 06:44:18;;;;;;;;;;;15.80;1.00;;;;;;5416737;26;19936;-80
2024/04/14 06:46:48;;;;;;;;;;;15.90;1.00;;;;;;5417211;26;19930;-76
2024/04/14 06:49:14;;;;;;;;;;;16.00;1.00;;;;;;5398201;26;19936;-77
2024/04/14 06:51:42;;;;;;;;;;;16.10;1.00;;;;;;5440552;26;19972;-83
2024/04/14 06:54:08;;;;;;;;;;;16.30;1.00;;;;;;5417158;26;19965;-78
2024/04/14 06:56:36;;;;;;;;;;;16.40;1.00;;;;;;5417083;26;19928;-78
2024/04/14 06:59:02;;;;;;;;;;;16.50;1.00;;;;;;5417055;26;19953;-77
2024/04/14 07:01:31;;;;;;;;;;;16.70;1.00;;;;;;5413770;26;19936;-77
2024/04/14 07:03:57;;;;;;;;;;;16.80;1.00;;;;;;5430121;26;20646;-77
2024/04/14 07:06:22;;;;;;;;;;;16.80;1.00;;;;;;5415694;26;19973;-78
2024/04/14 07:08:48;;;;;;;;;;;16.90;1.00;;;;;;5424065;26;20353;-78
2024/04/14 07:11:18;;;;;;;;;;;17.00;1.00;;;;;;5422583;26;19997;-78
2024/04/14 07:13:44;;;;;;;;;;;17.20;1.00;;;;;;5412641;26;19930;-77
2024/04/14 07:16:10;;;;;;;;;;;17.40;1.00;;;;;;5428072;26;19961;-83
2024/04/14 07:18:35;;;;;;;;;;;17.50;1.00;;;;;;5425946;26;19970;-74
2024/04/14 07:21:06;;;;;;;;;;;17.70;1.00;;;;;;5436453;26;19929;-74
2024/04/14 07:23:33;;;;;;;;;;;17.70;1.00;;;;;;5430946;26;19937;-75
2024/04/14 07:26:00;;;;;;;;;;;17.80;1.00;;;;;;5422774;26;19928;-73
2024/04/14 07:28:26;;;;;;;;;;;17.90;1.00;;;;;;5420145;26;19989;-73
2024/04/14 07:30:51;;;;;;;;;;;17.90;1.00;;;;;;5427224;26;19929;-73
2024/04/14 07:33:24;;;;;;;;;;;18.00;1.00;;;;;;5421206;26;19929;-73
2024/04/14 07:35:50;;;;;;;;;;;18.10;1.00;;;;;;5436990;26;19957;-73
2024/04/14 07:38:16;;;;;;;;;;;18.10;1.00;;;;;;5431033;26;20067;-75
2024/04/14 07:40:41;;;;;;;;;;;18.10;1.00;;;;;;5428723;26;20543;-76
2024/04/14 07:43:07;;;;;;;;;;;18.30;1.00;;;;;;5429542;26;19929;-76
2024/04/14 07:45:36;;;;;;;;;;;18.50;1.00;;;;;;5430756;26;19936;-77
2024/04/14 07:48:02;;;;;;;;;;;18.50;1.00;;;;;;5420188;26;19929;-77
2024/04/14 07:50:30;;;;;;;;;;;18.50;1.00;;;;;;5420712;26;19929;-76
2024/04/14 07:52:56;;;;;;;;;;;18.70;1.00;;;;;;5455443;26;19929;-74
2024/04/14 07:55:22;;;;;;;;;;;18.70;1.00;;;;;;5442675;26;19998;-74
2024/04/14 07:57:47;;;;;;;;;;;18.80;1.00;;;;;;5424497;26;19940;-75
2024/04/14 08:00:13;;;;;;;;;;;18.80;1.00;;;;;;5418786;26;19941;-74
2024/04/14 08:02:39;;;;;;;;;;;19.00;1.00;;;;;;5421792;26;20024;-75
2024/04/14 08:05:04;;;;;;;;;;;19.10;1.00;;;;;;5430624;26;19995;-74
2024/04/14 08:07:30;;;;;;;;;;;19.30;1.00;;;;;;5418444;26;19929;-76
2024/04/14 08:10:01;;;;;;;;;;;19.40;1.00;;;;;;5426231;26;19929;-75
2024/04/14 08:12:28;;;;;;;;;;;19.30;1.00;;;;;;5420124;26;19936;-75
2024/04/14 08:14:54;;;;;;;;;;;19.30;1.00;;;;;;5406240;26;19929;-76
2024/04/14 08:17:20;;;;;;;;;;;19.30;1.00;;;;;;5419643;26;19936;-76
2024/04/14 08:19:46;;;;;;;;;;;19.30;1.00;;;;;;5419341;26;19929;-76
2024/04/14 08:22:12;;;;;;;;;;;19.50;1.00;;;;;;5419508;26;19941;-76
2024/04/14 08:24:38;;;;;;;;;;;19.50;1.00;;;;;;5419397;26;19953;-77
2024/04/14 08:27:04;;;;;;;;;;;19.50;1.00;;;;;;5419444;26;19940;-77
2024/04/14 08:29:29;;;;;;;;;;;19.60;1.00;;;;;;5419459;26;19929;-77
2024/04/14 08:31:56;;;;;;;;;;;19.60;1.00;;;;;;5419275;26;19957;-77
2024/04/14 08:34:22;;;;;;;;;;;19.80;1.00;;;;;;5419505;26;20368;-77
2024/04/14 08:36:47;;;;;;;;;;;19.90;1.00;;;;;;5419534;26;19935;-76
2024/04/14 08:39:13;;;;;;;;;;;20.00;1.00;;;;;;5419179;26;19936;-76
2024/04/14 08:41:41;;;;;;;;;;;19.80;1.00;;;;;;5419174;26;19929;-77
2024/04/14 08:44:09;;;;;;;;;;;19.70;1.00;;;;;;5419603;26;20368;-77
2024/04/14 08:46:37;;;;;;;;;;;19.50;1.00;;;;;;5419097;26;20328;-76
2024/04/14 08:49:07;;;;;;;;;;;19.50;1.00;;;;;;5418440;26;19929;-77
2024/04/14 08:51:33;;;;;;;;;;;19.50;1.00;;;;;;5419156;26;19940;-77
2024/04/14 08:53:59;;;;;;;;;;;19.40;1.00;;;;;;5419670;26;20264;-75
2024/04/14 08:56:25;;;;;;;;;;;19.50;1.00;;;;;;5419121;26;19936;-76
2024/04/14 08:58:56;;;;;;;;;;;19.60;1.00;;;;;;5418957;26;19929;-75
2024/04/14 09:01:22;;;;;;;;;;;19.80;1.00;;;;;;5417044;26;19929;-76
2024/04/14 09:03:50;;;;;;;;;;;19.90;1.00;;;;;;5403297;26;19964;-76
2024/04/14 09:06:17;;;;;;;;;;;19.90;1.00;;;;;;5418964;26;19929;-76
2024/04/14 09:08:42;;;;;;;;;;;20.00;1.00;;;;;;5419623;26;19943;-76
2024/04/14 09:11:08;;;;;;;;;;;20.20;1.00;;;;;;5411604;26;19961;-77
2024/04/14 09:13:34;;;;;;;;;;;20.30;1.00;;;;;;5418768;26;19929;-77
2024/04/14 09:16:00;;;;;;;;;;;20.60;1.00;;;;;;5418786;26;20441;-76
2024/04/14 09:18:25;;;;;;;;;;;20.70;1.00;;;;;;5418668;26;19929;-76
2024/04/14 09:20:51;;;;;;;;;;;20.70;1.00;;;;;;5418736;26;19929;-76
2024/04/14 09:23:18;;;;;;;;;;;20.80;1.00;;;;;;5418362;26;20051;-76
2024/04/14 09:25:44;;;;;;;;;;;20.90;1.00;;;;;;5433065;26;19935;-76
2024/04/14 09:28:13;;;;;;;;;;;21.00;1.00;;;;;;5418737;26;19956;-76
2024/04/14 09:30:39;;;;;;;;;;;20.90;1.00;;;;;;5418794;26;19997;-76
2024/04/14 09:33:06;;;;;;;;;;;20.80;1.00;;;;;;5418686;26;19937;-76
2024/04/14 09:35:37;;;;;;;;;;;20.80;1.00;;;;;;5425053;26;19983;-76
2024/04/14 09:38:06;;;;;;;;;;;20.90;1.00;;;;;;5418247;26;19929;-76
2024/04/14 09:40:34;;;;;;;;;;;20.90;1.00;;;;;;5411876;26;19968;-76
2024/04/14 09:43:00;;;;;;;;;;;20.90;1.00;;;;;;5414024;26;20610;-76
2024/04/14 09:45:27;;;;;;;;;;;20.80;1.00;;;;;;5417898;26;19929;-76
2024/04/14 09:47:56;;;;;;;;;;;20.90;1.00;;;;;;5442356;26;19952;-76
2024/04/14 09:50:26;;;;;;;;;;;20.90;1.00;;;;;;5415771;26;19929;-76
2024/04/14 09:52:52;;;;;;;;;;;20.90;1.00;;;;;;5434870;26;20356;-76
2024/04/14 09:55:20;;;;;;;;;;;20.80;1.00;;;;;;5426994;26;19937;-76
2024/04/14 09:57:49;;;;;;;;;;;20.90;1.00;;;;;;5433970;26;20022;-77
2024/04/14 10:00:19;;;;;;;;;;;21.10;1.00;;;;;;5419589;26;20273;-76
2024/04/14 10:02:44;;;;;;;;;;;;;;;;;;5430312;26;19929;-75
2024/04/14 10:05:13;;;;;;;;;;;21.20;1.00;;;;;;5433109;26;20589;-76
2024/04/14 10:07:43;;;;;;;;;;;21.30;1.00;;;;;;5431281;26;19935;-77
2024/04/14 10:10:10;;;;;;;;;;;21.70;1.00;;;;;;5414158;26;19928;-76
2024/04/14 10:12:37;;;;;;;;;;;21.80;1.00;;;;;;5439176;26;19928;-76
2024/04/14 10:15:03;;;;;;;;;;;21.80;1.00;;;;;;5432532;26;19933;-76
2024/04/14 10:17:34;;;;;;;;;;;21.90;1.00;;;;;;5409828;26;19929;-76
2024/04/14 10:20:14;;;;;;;;;;;22.10;1.00;;;;;;5418179;26;19937;-76
2024/04/14 10:22:40;;;;;;;;;;;22.20;1.00;;;;;;5423033;26;20257;-76
2024/04/14 10:25:17;;;;;;;;;;;22.10;1.00;;;;;;5423770;26;19932;-78
2024/04/14 10:27:43;;;;;;;;;;;22.20;1.00;;;;;;5439313;26;19929;-78
2024/04/14 10:30:10;;;;;;;;;;;22.10;1.00;;;;;;5420821;26;19994;-80
2024/04/14 10:32:35;;;;;;;;;;;22.10;1.00;;;;;;5426493;26;19928;-82
2024/04/14 10:35:11;;;;;;;;;;;22.20;1.00;;;;;;5423459;26;19929;-82
2024/04/14 10:37:37;;;;;;;;;;;22.40;1.00;;;;;;5430695;26;20001;-77
2024/04/14 10:40:07;;;;;;;;;;;22.30;1.00;;;;;;5420854;26;20404;-79
2024/04/14 10:42:36;;;;;;;;;;;22.40;1.00;;;;;;5421261;26;19936;-79
2024/04/14 10:45:06;;;;;;;;;;;22.20;1.00;;;;;;5425028;26;19929;-79
2024/04/14 10:47:32;;;;;;;;;;;22.30;1.00;;;;;;5420373;26;19929;-79
2024/04/14 10:49:58;;;;;;;;;;;22.00;1.00;;;;;;5420417;26;19929;-78
2024/04/14 10:52:23;;;;;;;;;;;22.10;1.00;;;;;;5443794;26;19996;-79
2024/04/14 10:54:56;;;;;;;;;;;22.10;1.00;;;;;;5432224;26;19937;-80
2024/04/14 10:57:22;;;;;;;;;;;22.20;1.00;;;;;;5432348;26;19929;-80
2024/04/14 10:59:47;;;;;;;;;;;22.40;1.00;;;;;;5426201;26;19998;-81
2024/04/14 11:02:13;;;;;;;;;;;22.10;1.00;;;;;;5440819;26;19928;-78
2024/04/14 11:04:43;;;;;;;;;;;22.50;1.00;;;;;;5447551;26;19935;-78
2024/04/14 11:07:13;;;;;;;;;;;22.80;1.00;;;;;;5454542;26;19944;-78
2024/04/14 11:09:43;;;;;;;;;;;22.70;1.00;;;;;;5423654;26;19961;-75
2024/04/14 11:12:09;;;;;;;;;;;22.70;1.00;;;;;;5441073;26;19929;-76
2024/04/14 11:14:36;;;;;;;;;;;22.70;1.00;;;;;;5433748;26;20256;-75
2024/04/14 11:17:12;;;;;;;;;;;22.70;1.00;;;;;;5439202;26;19933;-76
2024/04/14 11:19:37;;;;;;;;;;;22.70;1.00;;;;;;5426680;26;19937;-77
2024/04/14 11:22:03;;;;;;;;;;;22.70;1.00;;;;;;5426786;26;19982;-77
2024/04/14 11:24:33;;;;;;;;;;;22.90;1.00;;;;;;5418203;26;20400;-77
2024/04/14 11:27:00;;;;;;;;;;;23.20;1.00;;;;;;5417887;26;19941;-76
2024/04/14 11:29:26;;;;;;;;;;;23.20;1.00;;;;;;5409547;26;19929;-76
2024/04/14 11:31:52;;;;;;;;;;;23.50;1.00;;;;;;5433721;26;19994;-78
2024/04/14 11:34:18;;;;;;;;;;;23.50;1.00;;;;;;5433233;26;19929;-77
2024/04/14 11:36:47;;;;;;;;;;;23.50;1.00;;;;;;5419732;26;19959;-77
2024/04/14 11:39:13;;;;;;;;;;;23.70;1.00;;;;;;5420384;26;19998;-76
2024/04/14 11:41:39;;;;;;;;;;;23.70;1.00;;;;;;5419675;26;19941;-76
2024/04/14 11:44:05;;;;;;;;;;;23.60;1.00;;;;;;5419385;26;19937;-75
2024/04/14 11:46:31;;;;;;;;;;;23.60;1.00;;;;;;5419031;26;19998;-75
2024/04/14 11:48:56;;;;;;;;;;;23.50;1.00;;;;;;5418011;26;19998;-75
2024/04/14 11:51:22;;;;;;;;;;;23.30;1.00;;;;;;5420125;26;19994;-75
2024/04/14 11:53:47;;;;;;;;;;;23.20;1.00;;;;;;5419813;26;19937;-75
2024/04/14 11:56:13;;;;;;;;;;;23.30;1.00;;;;;;5419631;26;19929;-76
2024/04/14 11:58:39;;;;;;;;;;;23.50;1.00;;;;;;5419617;26;19937;-75
2024/04/14 12:01:04;;;;;;;;;;;23.70;1.00;;;;;;5419864;26;19936;-76
2024/04/14 12:03:31;;;;;;;;;;;23.30;1.00;;;;;;5402917;26;19930;-75
2024/04/14 12:05:56;;;;;;;;;;;23.30;1.00;;;;;;5418206;26;19937;-75
2024/04/14 12:08:25;;;;;;;;;;;23.40;1.00;;;;;;5419860;26;19936;-75
2024/04/14 12:10:50;;;;;;;;;;;23.60;1.00;;;;;;5419877;26;19929;-75
2024/04/14 12:13:25;;;;;;;;;;;23.80;1.00;;;;;;5414725;26;19935;-75
2024/04/14 12:15:52;;;;;;;;;;;24.10;1.00;;;;;;5412549;26;19928;-75
2024/04/14 12:18:18;;;;;;;;;;;24.10;1.00;;;;;;5418677;26;19929;-75
2024/04/14 12:20:43;;;;;;;;;;;23.80;1.00;;;;;;5396813;26;19929;-75
2024/04/14 12:23:09;;;;;;;;;;;24.10;1.00;;;;;;5419303;26;19929;-75
2024/04/14 12:25:35;;;;;;;;;;;23.80;1.00;;;;;;5419556;26;19936;-76
2024/04/14 12:28:00;;;;;;;;;;;23.70;1.00;;;;;;5419223;26;19937;-76
2024/04/14 12:30:31;;;;;;;;;;;23.60;1.00;;;;;;5419144;26;19929;-75
2024/04/14 12:32:58;;;;;;;;;;;23.80;1.00;;;;;;5418721;26;19998;-76
2024/04/14 12:35:24;;;;;;;;;;;23.80;1.00;;;;;;5419334;26;19938;-75
2024/04/14 12:37:49;;;;;;;;;;;23.70;1.00;;;;;;5412873;26;19941;-76
2024/04/14 12:40:15;;;;;;;;;;;24.10;1.00;;;;;;5419850;26;19929;-76
2024/04/14 12:42:41;;;;;;;;;;;24.10;1.00;;;;;;5419423;26;19929;-75
2024/04/14 12:45:06;;;;;;;;;;;24.00;1.00;;;;;;5419276;26;19929;-76
2024/04/14 12:47:32;;;;;;;;;;;24.00;1.00;;;;;;5419212;26;19941;-76
2024/04/14 12:49:58;;;;;;;;;;;24.30;1.00;;;;;;5418637;26;20302;-75
2024/04/14 12:52:25;;;;;;;;;;;25.00;1.00;;;;;;5418867;26;19933;-75
2024/04/14 12:54:51;;;;;;;;;;;25.00;1.00;;;;;;5431173;26;20005;-78
2024/04/14 12:57:16;;;;;;;;;;;25.20;1.00;;;;;;5427626;26;19929;-77
2024/04/14 12:59:42;;;;;;;;;;;25.10;1.00;;;;;;5411469;26;20002;-75
2024/04/14 13:02:08;;;;;;;;;;;24.80;1.00;;;;;;5419170;26;19941;-75
2024/04/14 13:04:33;;;;;;;;;;;25.00;1.00;;;;;;5433075;26;20001;-76
2024/04/14 13:06:59;;;;;;;;;;;25.10;1.00;;;;;;5427578;26;19929;-75
2024/04/14 13:09:25;;;;;;;;;;;25.20;1.00;;;;;;5418985;26;20491;-75
2024/04/14 13:11:50;;;;;;;;;;;25.40;1.00;;;;;;5432124;26;19928;-75
2024/04/14 13:14:19;;;;;;;;;;;25.30;1.00;;;;;;5418700;26;19936;-75
2024/04/14 13:16:44;;;;;;;;;;;25.50;1.00;;;;;;5418762;26;19929;-75
2024/04/14 13:19:10;;;;;;;;;;;25.50;1.00;;;;;;5418666;26;19966;-78
2024/04/14 13:21:38;;;;;;;;;;;25.40;1.00;;;;;;5418621;26;19936;-77
2024/04/14 13:24:04;;;;;;;;;;;25.20;1.00;;;;;;5416746;26;20330;-75
2024/04/14 13:26:31;;;;;;;;;;;25.20;1.00;;;;;;5419166;26;19929;-78
2024/04/14 13:28:57;;;;;;;;;;;25.20;1.00;;;;;;5418506;26;20258;-76
2024/04/14 13:31:22;;;;;;;;;;;25.30;1.00;;;;;;5417637;26;19936;-78
2024/04/14 13:33:49;;;;;;;;;;;25.00;1.00;;;;;;5418438;26;19929;-80
2024/04/14 13:36:25;;;;;;;;;;;25.10;1.00;;;;;;5409626;26;19929;-85
2024/04/14 13:38:50;;;;;;;;;;;25.40;1.00;;;;;;5417245;26;19936;-83
2024/04/14 13:41:26;;;;;;;;;;;25.30;1.00;;;;;;5418754;26;19929;-82
2024/04/14 13:43:56;;;;;;;;;;;25.30;1.00;;;;;;5410716;26;20277;-82
2024/04/14 13:46:26;;;;;;;;;;;25.50;1.00;;;;;;5405477;26;19968;-81
2024/04/14 13:48:51;;;;;;;;;;;25.60;1.00;;;;;;5430538;26;20410;-80
2024/04/14 13:51:19;;;;;;;;;;;25.70;1.00;;;;;;5421302;26;19929;-81
2024/04/14 13:53:44;;;;;;;;;;;25.80;1.00;;;;;;5419025;26;19933;-81
2024/04/14 13:59:13;;;;;;;;;;;26.10;1.00;;;;;;5420674;26;19933;-94
2024/04/14 14:04:43;;;;;;;;;;;25.80;1.00;;;;;;5430066;26;19993;-96
2024/04/14 14:10:13;;;;;;;;;;;26.00;1.00;;;;;;5411519;26;19994;-88
2024/04/14 14:12:55;;;;;;;;;;;25.90;1.00;;;;;;5416956;26;19936;-83
2024/04/14 14:15:46;;;;;;;;;;;25.90;1.00;;;;;;5415533;26;19948;-82
2024/04/14 14:18:13;;;;;;;;;;;26.00;1.00;;;;;;5418069;26;19935;-83
2024/04/14 14:20:40;;;;;;;;;;;26.20;1.00;;;;;;5417200;26;19929;-81
2024/04/14 14:23:06;;;;;;;;;;;26.30;1.00;;;;;;5429804;26;20445;-81
2024/04/14 14:25:49;;;;;;;;;;;26.30;1.00;;;;;;5417732;26;19937;-82
2024/04/14 14:28:25;;;;;;;;;;;26.30;1.00;;;;;;5415608;26;20026;-82
2024/04/14 14:31:01;;;;;;;;;;;26.30;1.00;;;;;;5427792;26;19928;-81
2024/04/14 14:36:28;;;;;;;;;;;26.50;1.00;;;;;;5417296;26;19965;-81
2024/04/14 14:38:55;;;;;;;;;;;26.60;1.00;;;;;;5420101;26;19936;-81
2024/04/14 14:41:21;;;;;;;;;;;26.50;1.00;;;;;;5416787;26;19929;-82
2024/04/14 14:43:56;;;;;;;;;;;26.70;1.00;;;;;;5416533;26;19936;-92